Time;durP1;ratioP1;P1;durP2;ratioP2;P2;SDS_P1;SDS_P2;PMS_P1;PMS_P2;Temp;Humidity;BMP_temperature;BMP_pressure;BME280_temperature;BME280_humidity;BME280_pressure;Samples;Min_cycle;Max_cycle;Signal;HPM_P1;HPM_P2
2022/08/01 00:02:21;;;;;;;;;;;;;;;19.88;69.33;98899.59;1622031;88;21299;-75
2022/08/01 00:04:53;;;;;;;;;;;;;;;19.88;69.55;98891.23;1601227;88;20093;-75
2022/08/01 00:07:24;;;;;;;;;;;;;;;19.88;69.70;98902.38;1621961;88;20129;-75
2022/08/01 00:09:55;;;;;;;;;;;;;;;19.85;70.00;98892.81;1621929;88;20172;-75
2022/08/01 00:12:21;;;;;;;;;;;;;;;19.82;70.31;98892.80;1622043;88;20104;-75
2022/08/01 00:14:49;;;;;;;;;;;;;;;19.78;70.68;98894.98;1621993;88;21540;-76
2022/08/01 00:17:18;;;;;;;;;;;;;;;19.74;71.05;98896.95;1621940;88;20160;-75
2022/08/01 00:19:50;;;;;;;;;;;;;;;19.70;71.37;98893.95;1621834;88;20117;-76
2022/08/01 00:22:26;;;;;;;;;;;;;;;19.66;71.58;98887.58;1620206;88;20101;-76
2022/08/01 00:24:59;;;;;;;;;;;;;;;19.62;71.82;98891.77;1622239;88;20108;-76
2022/08/01 00:27:27;;;;;;;;;;;;;;;19.60;71.83;98888.58;1601435;88;20094;-76
2022/08/01 00:29:57;;;;;;;;;;;;;;;19.59;71.99;98893.94;1621925;88;20104;-76
2022/08/01 00:32:25;;;;;;;;;;;;;;;19.57;72.02;98887.97;1614638;87;20154;-76
2022/08/01 00:34:54;;;;;;;;;;;;;;;19.57;72.10;98888.56;1648732;86;20102;-76
2022/08/01 00:37:20;;;;;;;;;;;;;;;19.54;72.08;98890.14;1627909;87;20139;-76
2022/08/01 00:39:50;;;;;;;;;;;;;;;19.53;72.23;98888.55;1627926;87;20127;-76
2022/08/01 00:42:21;;;;;;;;;;;;;;;19.51;72.20;98891.48;1648550;87;20079;-75
2022/08/01 00:44:48;;;;;;;;;;;;;;;19.51;72.31;98895.09;1648047;87;20119;-75
2022/08/01 00:47:17;;;;;;;;;;;;;;;19.48;72.33;98886.70;1627792;87;20090;-75
2022/08/01 00:49:45;;;;;;;;;;;;;;;19.44;72.50;98883.91;1647235;87;20129;-75
2022/08/01 00:52:13;;;;;;;;;;;;;;;19.42;72.54;98887.67;1648419;87;21114;-75
2022/08/01 00:54:44;;;;;;;;;;;;;;;19.40;72.64;98888.66;1648217;87;20514;-76
2022/08/01 00:57:14;;;;;;;;;;;;;;;19.38;72.62;98884.08;1639508;87;20092;-76
2022/08/01 00:59:41;;;;;;;;;;;;;;;19.36;72.73;98880.28;1621976;88;20085;-75
2022/08/01 01:02:13;;;;;;;;;;;;;;;19.34;72.93;98877.09;1621819;88;20104;-76
2022/08/01 01:04:44;;;;;;;;;;;;;;;19.32;72.92;98877.28;1621261;88;21843;-75
2022/08/01 01:07:20;;;;;;;;;;;;;;;19.30;73.17;98878.27;1621913;88;20428;-75
2022/08/01 01:10:00;;;;;;;;;;;;;;;19.29;73.45;98872.50;1621843;88;20435;-76
2022/08/01 01:12:45;;;;;;;;;;;;;;;19.26;73.75;98876.86;1621903;88;20121;-75
2022/08/01 01:15:17;;;;;;;;;;;;;;;19.19;74.09;98870.45;1617244;88;20125;-76
2022/08/01 01:17:50;;;;;;;;;;;;;;;19.12;74.37;98873.41;1621447;88;21272;-75
2022/08/01 01:20:19;;;;;;;;;;;;;;;19.06;74.56;98870.78;1621700;88;20150;-76
2022/08/01 01:22:55;;;;;;;;;;;;;;;18.99;74.78;98871.36;1621598;88;20151;-74
2022/08/01 01:25:45;;;;;;;;;;;;;;;18.92;75.27;98872.11;1621661;88;20132;-75
2022/08/01 01:28:41;;;;;;;;;;;;;;;18.86;75.48;98864.52;1600992;88;20129;-76
2022/08/01 01:31:13;;;;;;;;;;;;;;;18.80;75.78;98869.05;1621626;88;21196;-75
2022/08/01 01:33:43;;;;;;;;;;;;;;;18.76;76.28;98872.99;1601026;88;20145;-73
2022/08/01 01:36:11;;;;;;;;;;;;;;;18.70;76.68;98871.16;1621788;88;20182;-73
2022/08/01 01:38:42;;;;;;;;;;;;;;;18.67;77.01;98871.14;1625088;87;20127;-75
2022/08/01 01:41:17;;;;;;;;;;;;;;;18.64;77.33;98873.30;1633478;87;20440;-75
2022/08/01 01:43:45;;;;;;;;;;;;;;;18.62;77.47;98871.50;1620858;88;21284;-75
2022/08/01 01:46:17;;;;;;;;;;;;;;;18.59;77.76;98872.23;1619088;88;20125;-74
2022/08/01 01:48:51;;;;;;;;;;;;;;;18.57;77.74;98879.57;1621704;88;20081;-74
2022/08/01 01:51:22;;;;;;;;;;;;;;;18.55;77.82;98872.80;1621854;88;38060;-73
2022/08/01 01:53:50;;;;;;;;;;;;;;;18.51;78.12;98878.33;1621667;88;20129;-75
2022/08/01 01:56:27;;;;;;;;;;;;;;;18.49;78.22;98875.94;1621270;88;20517;-74
2022/08/01 01:58:55;;;;;;;;;;;;;;;18.45;78.29;98872.36;1620860;88;20093;-75
2022/08/01 02:01:31;;;;;;;;;;;;;;;18.42;78.37;98880.07;1621714;88;20093;-74
2022/08/01 02:04:02;;;;;;;;;;;;;;;18.39;78.57;98877.27;1621272;88;20666;-74
2022/08/01 02:06:31;;;;;;;;;;;;;;;18.34;78.70;98872.85;1622172;88;20420;-74
2022/08/01 02:08:59;;;;;;;;;;;;;;;18.30;79.02;98876.78;1597385;88;20093;-72
2022/08/01 02:11:33;;;;;;;;;;;;;;;18.22;79.15;98867.58;1601544;88;20126;-72
2022/08/01 02:14:04;;;;;;;;;;;;;;;18.17;79.36;98869.91;1601176;88;20092;-75
2022/08/01 02:16:35;;;;;;;;;;;;;;;18.12;79.43;98872.45;1621874;88;20149;-75
2022/08/01 02:19:07;;;;;;;;;;;;;;;18.08;79.52;98873.00;1622035;88;20187;-76
2022/08/01 02:21:46;;;;;;;;;;;;;;;18.01;79.63;98872.34;1621922;88;21176;-76
2022/08/01 02:24:19;;;;;;;;;;;;;;;17.95;79.90;98874.45;1621306;88;20164;-75
2022/08/01 02:26:51;;;;;;;;;;;;;;;17.90;80.14;98872.05;1621556;88;20121;-76
2022/08/01 02:29:31;;;;;;;;;;;;;;;17.85;80.44;98872.39;1601647;88;20093;-76
2022/08/01 02:31:58;;;;;;;;;;;;;;;17.80;80.71;98873.53;1601716;88;20496;-76
2022/08/01 02:34:32;;;;;;;;;;;;;;;17.74;81.04;98877.23;1601300;88;20523;-76
2022/08/01 02:37:03;;;;;;;;;;;;;;;17.64;81.27;98875.10;1621846;88;20464;-77
2022/08/01 02:39:32;;;;;;;;;;;;;;;17.58;81.79;98880.78;1621583;88;20109;-77
2022/08/01 02:42:03;;;;;;;;;;;;;;;17.55;82.20;98878.76;1621967;88;20121;-78
2022/08/01 02:44:36;;;;;;;;;;;;;;;17.53;82.46;98875.56;1622037;88;20093;-77
2022/08/01 02:47:05;;;;;;;;;;;;;;;17.53;82.83;98879.72;1621766;88;21825;-78
2022/08/01 02:49:46;;;;;;;;;;;;;;;17.52;82.99;98876.73;1621984;88;20129;-76
2022/08/01 02:52:13;;;;;;;;;;;;;;;17.52;83.12;98872.58;1621344;88;20113;-77
2022/08/01 02:54:52;;;;;;;;;;;;;;;17.54;83.39;98876.36;1621422;88;20708;-77
2022/08/01 02:57:20;;;;;;;;;;;;;;;17.54;83.63;98876.36;1620988;88;20471;-75
2022/08/01 02:59:51;;;;;;;;;;;;;;;17.54;83.83;98875.77;1622011;88;21210;-75
2022/08/01 03:02:23;;;;;;;;;;;;;;;17.54;84.07;98883.30;1621146;88;20479;-75
2022/08/01 03:04:51;;;;;;;;;;;;;;;17.54;84.54;98883.30;1622049;88;20097;-75
2022/08/01 03:07:19;;;;;;;;;;;;;;;17.51;84.77;98880.69;1602383;88;20985;-75
2022/08/01 03:09:50;;;;;;;;;;;;;;;17.47;85.19;98879.26;1618314;88;20495;-76
2022/08/01 03:12:18;;;;;;;;;;;;;;;17.46;85.53;98890.15;1601679;88;20140;-75
2022/08/01 03:14:49;;;;;;;;;;;;;;;17.46;86.05;98881.02;1621942;88;20136;-74
2022/08/01 03:17:25;;;;;;;;;;;;;;;17.46;86.52;98885.19;1621992;88;20129;-74
2022/08/01 03:19:48;;;;;;;;;;;;;;;17.48;86.68;98891.16;1621418;88;20109;-73
2022/08/01 03:22:15;;;;;;;;;;;;;;;17.49;86.83;98891.37;1622068;88;20427;-74
2022/08/01 03:24:43;;;;;;;;;;;;;;;17.52;86.95;98890.61;1602133;88;21269;-75
2022/08/01 03:27:14;;;;;;;;;;;;;;;17.53;86.96;98885.27;1601726;88;20157;-76
2022/08/01 03:29:47;;;;;;;;;;;;;;;17.55;87.09;98888.47;1601436;88;20133;-76
2022/08/01 03:32:16;;;;;;;;;;;;;;;17.59;87.11;98887.13;1601551;88;20487;-76
2022/08/01 03:34:45;;;;;;;;;;;;;;;17.61;87.05;98885.57;1621958;88;20105;-76
2022/08/01 03:37:27;;;;;;;;;;;;;;;17.65;86.98;98887.83;1601652;88;20133;-76
2022/08/01 03:40:01;;;;;;;;;;;;;;;17.70;86.77;98882.53;1601614;88;20133;-76
2022/08/01 03:42:34;;;;;;;;;;;;;;;17.75;86.52;98887.75;1622002;88;20093;-75
2022/08/01 03:45:09;;;;;;;;;;;;;;;17.79;86.39;98883.84;1626605;87;20463;-75
2022/08/01 03:47:35;;;;;;;;;;;;;;;17.83;86.21;98887.24;1637636;87;20125;-73
2022/08/01 03:50:06;;;;;;;;;;;;;;;17.86;85.95;98888.67;1639379;87;20711;-74
2022/08/01 03:52:38;;;;;;;;;;;;;;;17.89;86.05;98882.95;1647136;87;20622;-74
2022/08/01 03:55:11;;;;;;;;;;;;;;;17.93;86.28;98882.36;1627010;87;20129;-73
2022/08/01 03:57:37;;;;;;;;;;;;;;;17.97;86.13;98878.45;1621253;88;20109;-74
2022/08/01 04:00:08;;;;;;;;;;;;;;;18.01;85.96;98877.89;1646648;87;20078;-74
2022/08/01 04:02:38;;;;;;;;;;;;;;;18.07;85.94;98872.80;1648693;87;21227;-74
2022/08/01 04:05:07;;;;;;;;;;;;;;;18.13;85.70;98876.23;1624565;87;20160;-74
2022/08/01 04:07:35;;;;;;;;;;;;;;;18.19;85.62;98876.69;1621558;88;20133;-73
2022/08/01 04:10:09;;;;;;;;;;;;;;;18.25;85.53;98874.35;1621715;88;20584;-74
2022/08/01 04:12:42;;;;;;;;;;;;;;;18.31;85.08;98872.82;1632602;87;20154;-73
2022/08/01 04:15:12;;;;;;;;;;;;;;;18.38;84.79;98862.56;1626628;87;20106;-73
2022/08/01 04:17:43;;;;;;;;;;;;;;;18.47;84.78;98869.19;1648038;87;20099;-74
2022/08/01 04:20:12;;;;;;;;;;;;;;;18.55;84.51;98874.98;1648050;87;20438;-74
2022/08/01 04:22:41;;;;;;;;;;;;;;;18.62;83.82;98873.69;1644847;87;20143;-74
2022/08/01 04:25:14;;;;;;;;;;;;;;;18.68;83.28;98878.30;1648137;87;20123;-73
2022/08/01 04:27:44;;;;;;;;;;;;;;;18.73;82.73;98873.17;1645731;87;21411;-78
2022/08/01 04:30:14;;;;;;;;;;;;;;;18.81;82.78;98874.02;1643139;87;20154;-77
2022/08/01 04:32:40;;;;;;;;;;;;;;;18.90;82.25;98880.64;1647907;87;20079;-75
2022/08/01 04:35:09;;;;;;;;;;;;;;;18.96;81.05;98876.31;1649517;87;20136;-74
2022/08/01 04:37:36;;;;;;;;;;;;;;;19.04;81.04;98875.97;1648311;87;20151;-74
2022/08/01 04:40:10;;;;;;;;;;;;;;;19.11;80.33;98873.20;1648200;87;21095;-74
2022/08/01 04:42:49;;;;;;;;;;;;;;;19.18;79.87;98878.59;1647865;87;20161;-75
2022/08/01 04:45:08;;;;;;;;;;;;;;;19.25;78.95;98866.12;1646312;87;20434;-74
2022/08/01 04:47:36;;;;;;;;;;;;;;;19.31;78.25;98865.36;1647655;87;20473;-74
2022/08/01 04:50:12;;;;;;;;;;;;;;;19.39;77.70;98868.38;1648190;87;20122;-72
2022/08/01 04:52:41;;;;;;;;;;;;;;;19.47;77.45;98866.42;1627407;87;21146;-75
2022/08/01 04:55:09;;;;;;;;;;;;;;;19.53;76.85;98864.09;1647637;87;20155;-74
2022/08/01 04:57:37;;;;;;;;;;;;;;;19.59;76.95;98857.75;1648086;87;20190;-74
2022/08/01 05:00:08;;;;;;;;;;;;;;;19.67;76.08;98861.33;1648205;87;20095;-75
2022/08/01 05:02:40;;;;;;;;;;;;;;;19.76;76.11;98864.54;1648487;87;20103;-79
2022/08/01 05:05:15;;;;;;;;;;;;;;;19.87;75.76;98860.39;1647868;87;20099;-75
2022/08/01 05:07:43;;;;;;;;;;;;;;;19.97;73.51;98860.42;1631310;85;20104;-74
2022/08/01 05:10:19;;;;;;;;;;;;;;;20.06;73.69;98865.61;1634914;87;20475;-74
2022/08/01 05:12:50;;;;;;;;;;;;;;;20.16;73.58;98865.42;1655762;85;20124;-74
2022/08/01 05:15:19;;;;;;;;;;;;;;;20.28;72.62;98869.20;1682412;85;20142;-75
2022/08/01 05:17:48;;;;;;;;;;;;;;;20.40;72.40;98868.24;1682555;85;21070;-76
2022/08/01 05:20:21;;;;;;;;;;;;;;;20.49;71.00;98867.05;1680457;85;20133;-75
2022/08/01 05:22:49;;;;;;;;;;;;;;;20.57;71.16;98864.46;1626289;88;20132;-79
2022/08/01 05:25:17;;;;;;;;;;;;;;;20.62;71.00;98855.09;1651977;86;20118;-79
2022/08/01 05:27:47;;;;;;;;;;;;;;;20.68;70.51;98859.67;1601519;88;20137;-84
2022/08/01 05:30:15;;;;;;;;;;;;;;;20.71;69.76;98865.25;1639405;87;21505;-76
2022/08/01 05:32:44;;;;;;;;;;;;;;;20.76;69.91;98859.87;1640271;87;20421;-76
2022/08/01 05:35:12;;;;;;;;;;;;;;;20.85;68.48;98865.80;1639829;87;20107;-76
2022/08/01 05:37:42;;;;;;;;;;;;;;;20.93;67.89;98875.75;1656896;85;20538;-76
2022/08/01 05:40:16;;;;;;;;;;;;;;;21.01;68.32;98870.36;1683327;85;20166;-76
2022/08/01 05:42:40;;;;;;;;;;;;;;;21.13;68.21;98873.92;1682941;85;21140;-82
2022/08/01 05:45:07;;;;;;;;;;;;;;;21.24;65.55;98874.73;1682994;85;20142;-78
2022/08/01 05:47:39;;;;;;;;;;;;;;;21.28;66.05;98865.14;1683422;85;20444;-79
2022/08/01 05:50:07;;;;;;;;;;;;;;;21.31;65.65;98867.73;1658049;85;20165;-81
2022/08/01 05:52:38;;;;;;;;;;;;;;;21.36;65.70;98868.70;1683088;84;20468;-76
2022/08/01 05:55:09;;;;;;;;;;;;;;;21.40;65.96;98860.48;1657265;85;20474;-78
2022/08/01 05:57:39;;;;;;;;;;;;;;;21.46;66.35;98869.23;1679731;85;20464;-77
2022/08/01 06:00:08;;;;;;;;;;;;;;;21.50;66.88;98868.62;1683089;85;20125;-80
2022/08/01 06:02:42;;;;;;;;;;;;;;;21.52;65.24;98861.24;1683458;85;20284;-80
2022/08/01 06:05:09;;;;;;;;;;;;;;;21.51;65.54;98859.65;1680610;84;20126;-83
2022/08/01 06:07:36;;;;;;;;;;;;;;;21.50;64.92;98863.64;1683333;85;21143;-78
2022/08/01 06:10:02;;;;;;;;;;;;;;;21.50;66.41;98863.05;1683279;85;20114;-82
2022/08/01 06:12:29;;;;;;;;;;;;;;;21.53;65.90;98862.23;1683300;85;20433;-81
2022/08/01 06:14:55;;;;;;;;;;;;;;;21.58;65.94;98860.41;1657648;85;20455;-81
2022/08/01 06:17:22;;;;;;;;;;;;;;;21.64;65.61;98863.58;1683499;85;20446;-78
2022/08/01 06:19:48;;;;;;;;;;;;;;;21.70;65.82;98859.16;1683125;84;21139;-79
2022/08/01 06:22:15;;;;;;;;;;;;;;;21.76;65.07;98860.33;1683468;85;20073;-76
2022/08/01 06:24:42;;;;;;;;;;;;;;;21.85;65.29;98864.87;1683673;84;20102;-78
2022/08/01 06:27:09;;;;;;;;;;;;;;;21.92;63.72;98858.45;1683452;85;20800;-84
2022/08/01 06:29:35;;;;;;;;;;;;;;;22.00;64.76;98857.17;1682957;85;20097;-91
2022/08/01 06:32:02;;;;;;;;;;;;;;;22.10;64.08;98856.34;1683497;85;21738;-87
2022/08/01 06:34:29;;;;;;;;;;;;;;;22.22;64.83;98857.26;1683295;85;20086;-78
2022/08/01 06:36:55;;;;;;;;;;;;;;;22.36;63.07;98864.15;1683533;84;20094;-76
2022/08/01 06:39:22;;;;;;;;;;;;;;;22.49;61.83;98853.27;1682810;84;20097;-76
2022/08/01 06:41:48;;;;;;;;;;;;;;;22.63;61.87;98849.52;1683987;85;20452;-79
2022/08/01 06:44:15;;;;;;;;;;;;;;;22.78;62.14;98852.98;1683454;85;21144;-80
2022/08/01 06:46:42;;;;;;;;;;;;;;;22.95;61.87;98857.04;1702591;84;21069;-82
2022/08/01 06:49:08;;;;;;;;;;;;;;;23.13;61.99;98853.23;1708431;84;20464;-82
2022/08/01 06:51:34;;;;;;;;;;;;;;;23.33;61.00;98852.20;1689814;84;20120;-83
2022/08/01 06:54:03;;;;;;;;;;;;;;;23.50;60.82;98840.59;1690647;85;20474;-75
2022/08/01 06:56:29;;;;;;;;;;;;;;;23.66;57.93;98836.62;1691540;83;21763;-76
2022/08/01 06:59:00;;;;;;;;;;;;;;;23.79;59.42;98829.02;1691544;85;20123;-85
2022/08/01 07:01:24;;;;;;;;;;;;;;;23.95;59.40;98827.17;1691833;83;20160;-79
2022/08/01 07:03:52;;;;;;;;;;;;;;;24.15;56.56;98825.09;1691805;83;20119;-80
2022/08/01 07:06:32;;;;;;;;;;;;;;;24.26;55.91;98822.30;1692085;83;20079;-82
2022/08/01 07:09:09;;;;;;;;;;;;;;;24.31;56.18;98822.42;1642132;86;20124;-76
2022/08/01 07:11:36;;;;;;;;;;;;;;;24.42;56.50;98825.85;1642318;87;20151;-77
2022/08/01 07:14:03;;;;;;;;;;;;;;;24.55;56.27;98820.43;1642493;87;20458;-77
2022/08/01 07:16:29;;;;;;;;;;;;;;;24.69;56.53;98819.57;1642241;87;20127;-83
2022/08/01 07:18:56;;;;;;;;;;;;;;;24.85;55.11;98821.66;1635303;87;20159;-80
2022/08/01 07:21:22;;;;;;;;;;;;;;;24.94;54.73;98816.28;1643064;86;21741;-77
2022/08/01 07:23:49;;;;;;;;;;;;;;;25.09;55.14;98815.43;1638817;86;20151;-77
2022/08/01 07:26:15;;;;;;;;;;;;;;;25.24;54.15;98820.16;1651396;87;20168;-77
2022/08/01 07:28:42;;;;;;;;;;;;;;;25.42;53.49;98816.98;1648440;87;20436;-79
2022/08/01 07:31:08;;;;;;;;;;;;;;;25.60;53.04;98815.36;1640821;87;20433;-83
2022/08/01 07:33:34;;;;;;;;;;;;;;;25.76;50.78;98813.23;1624249;87;21139;-82
2022/08/01 07:36:01;;;;;;;;;;;;;;;25.84;50.88;98819.49;1624535;88;20103;-84
2022/08/01 07:38:27;;;;;;;;;;;;;;;25.86;49.00;98812.81;1638998;87;20486;-82
2022/08/01 07:40:57;;;;;;;;;;;;;;;25.87;48.87;98814.41;1625378;87;20381;-80
2022/08/01 07:43:23;;;;;;;;;;;;;;;25.95;50.00;98819.42;1634678;87;20097;-86
2022/08/01 07:45:50;;;;;;;;;;;;;;;26.11;49.03;98815.81;1644437;85;21143;-83
2022/08/01 07:48:19;;;;;;;;;;;;;;;26.28;49.26;98816.62;1626147;85;20199;-80
2022/08/01 07:50:45;;;;;;;;;;;;;;;26.42;47.60;98812.09;1624661;88;20115;-77
2022/08/01 07:53:12;;;;;;;;;;;;;;;26.44;48.81;98815.25;1624800;88;20127;-77
2022/08/01 07:55:38;;;;;;;;;;;;;;;26.53;47.57;98814.63;1624495;88;20099;-77
2022/08/01 07:58:04;;;;;;;;;;;;;;;26.62;47.45;98813.36;1624387;88;21121;-77
2022/08/01 08:00:31;;;;;;;;;;;;;;;26.73;47.81;98808.25;1637026;87;20141;-78
2022/08/01 08:02:59;;;;;;;;;;;;;;;26.87;46.72;98812.09;1642611;85;20130;-77
2022/08/01 08:05:27;;;;;;;;;;;;;;;27.00;48.25;98812.80;1643166;86;20150;-77
2022/08/01 08:07:54;;;;;;;;;;;;;;;27.18;47.71;98811.66;1648256;83;20485;-78
2022/08/01 08:10:20;;;;;;;;;;;;;;;27.37;46.87;98808.51;1693082;84;21145;-87
2022/08/01 08:12:48;;;;;;;;;;;;;;;27.58;46.96;98804.45;1680702;85;20164;-85
2022/08/01 08:15:14;;;;;;;;;;;;;;;27.90;45.95;98800.66;1680810;85;20112;-80
2022/08/01 08:17:40;;;;;;;;;;;;;;;28.25;44.34;98802.98;1680624;85;20653;-80
2022/08/01 08:20:07;;;;;;;;;;;;;;;28.52;43.69;98805.91;1680813;84;20167;-80
2022/08/01 08:22:34;;;;;;;;;;;;;;;28.67;42.53;98796.34;1688071;84;21407;-80
2022/08/01 08:25:01;;;;;;;;;;;;;;;28.72;42.72;98792.31;1696793;84;20463;-82
2022/08/01 08:27:27;;;;;;;;;;;;;;;28.86;42.01;98793.88;1709390;83;20121;-81
2022/08/01 08:29:53;;;;;;;;;;;;;;;29.15;41.63;98791.58;1686801;83;20163;-80
2022/08/01 08:32:20;;;;;;;;;;;;;;;29.47;41.82;98790.39;1680657;85;20140;-85
2022/08/01 08:34:47;;;;;;;;;;;;;;;29.77;40.68;98786.00;1680690;85;21124;-86
2022/08/01 08:37:13;;;;;;;;;;;;;;;30.02;40.69;98789.30;1681005;84;20140;-90
2022/08/01 08:39:41;;;;;;;;;;;;;;;30.23;41.29;98784.15;1680733;85;20474;-85
2022/08/01 08:42:07;;;;;;;;;;;;;;;30.47;40.39;98782.95;1680741;85;20125;-82
2022/08/01 08:44:35;;;;;;;;;;;;;;;30.65;36.42;98787.08;1680699;85;20183;-81
2022/08/01 08:47:04;;;;;;;;;;;;;;;30.65;37.42;98787.86;1680906;85;21770;-77
2022/08/01 08:49:31;;;;;;;;;;;;;;;30.61;37.92;98788.67;1680543;85;20096;-80
2022/08/01 08:51:59;;;;;;;;;;;;;;;30.72;38.18;98787.55;1680931;85;20145;-84
2022/08/01 08:54:25;;;;;;;;;;;;;;;31.00;38.21;98781.91;1680738;84;20076;-88
2022/08/01 08:56:52;;;;;;;;;;;;;;;31.26;35.19;98775.28;1680567;85;20470;-85
2022/08/01 08:59:18;;;;;;;;;;;;;;;31.31;36.19;98785.98;1680694;84;21077;-82
2022/08/01 09:01:45;;;;;;;;;;;;;;;31.28;36.10;98787.72;1680771;85;20481;-76
2022/08/01 09:04:11;;;;;;;;;;;;;;;31.25;36.31;98780.16;1680651;84;20174;-87
2022/08/01 09:06:38;;;;;;;;;;;;;;;31.15;35.39;98782.88;1680732;85;20547;-81
2022/08/01 09:09:05;;;;;;;;;;;;;;;30.93;35.16;98785.05;1689061;84;20090;-84
2022/08/01 09:11:33;;;;;;;;;;;;;;;30.74;37.31;98780.80;1675203;83;21101;-81
2022/08/01 09:14:13;;;;;;;;;;;;;;;30.81;36.79;98784.73;1676357;83;20105;-83
2022/08/01 09:16:41;;;;;;;;;;;;;;;31.02;37.35;98780.80;1691635;84;20086;-82
2022/08/01 09:19:17;;;;;;;;;;;;;;;31.28;36.22;98777.80;1685709;84;20093;-94
2022/08/01 09:21:58;;;;;;;;;;;;;;;31.44;35.97;98780.29;1672514;85;20447;-80
2022/08/01 09:24:26;;;;;;;;;;;;;;;31.67;36.10;98783.70;1679326;83;21782;-77
2022/08/01 09:26:53;;;;;;;;;;;;;;;31.85;36.04;98784.42;1690156;84;20190;-83
2022/08/01 09:29:22;;;;;;;;;;;;;;;32.08;33.96;98787.81;1652770;85;20080;-80
2022/08/01 09:31:49;;;;;;;;;;;;;;;32.08;34.54;98782.13;1673166;85;20609;-76
2022/08/01 09:34:16;;;;;;;;;;;;;;;32.08;34.80;98786.39;1673103;86;20113;-80
2022/08/01 09:36:51;;;;;;;;;;;;;;;31.90;33.42;98787.25;1673285;86;21027;-87
2022/08/01 09:39:20;;;;;;;;;;;;;;;31.72;35.49;98785.92;1672841;85;20120;-80
2022/08/01 09:41:46;;;;;;;;;;;;;;;31.64;33.88;98784.66;1671883;85;20179;-86
2022/08/01 09:44:14;;;;;;;;;;;;;;;31.50;33.93;98784.05;1671789;86;21100;-87
2022/08/01 09:46:53;;;;;;;;;;;;;;;31.50;35.07;98788.31;1673232;85;20124;-87
2022/08/01 09:49:31;;;;;;;;;;;;;;;31.71;35.17;98783.72;1673464;86;21709;-84
2022/08/01 09:51:59;;;;;;;;;;;;;;;31.91;35.05;98780.94;1673269;85;20092;-83
2022/08/01 09:54:31;;;;;;;;;;;;;;;32.07;35.42;98785.60;1673529;85;20436;-79
2022/08/01 09:57:08;;;;;;;;;;;;;;;32.22;34.06;98778.62;1673336;85;20503;-85
2022/08/01 09:59:37;;;;;;;;;;;;;;;32.38;33.58;98777.41;1673383;85;20096;-80
2022/08/01 10:02:04;;;;;;;;;;;;;;;32.38;31.62;98779.61;1673253;86;21145;-79
2022/08/01 10:04:30;;;;;;;;;;;;;;;32.28;33.02;98774.48;1678129;84;20443;-79
2022/08/01 10:07:05;;;;;;;;;;;;;;;32.14;32.67;98773.11;1689381;84;20152;-78
2022/08/01 10:09:40;;;;;;;;;;;;;;;32.09;33.68;98771.72;1692992;84;20098;-77
2022/08/01 10:12:06;;;;;;;;;;;;;;;32.23;34.28;98770.26;1677686;83;20148;-84
2022/08/01 10:14:32;;;;;;;;;;;;;;;32.54;33.67;98775.56;1674880;84;21507;-82
2022/08/01 10:16:59;;;;;;;;;;;;;;;32.51;32.79;98776.53;1688501;83;20145;-85
2022/08/01 10:19:28;;;;;;;;;;;;;;;32.44;34.14;98772.00;1684428;83;20149;-84
2022/08/01 10:21:55;;;;;;;;;;;;;;;32.38;32.35;98768.88;1701619;84;20403;-83
2022/08/01 10:24:22;;;;;;;;;;;;;;;32.30;33.45;98776.22;1701669;83;20110;-80
2022/08/01 10:26:51;;;;;;;;;;;;;;;32.26;33.38;98778.45;1701677;84;21850;-85
2022/08/01 10:29:20;;;;;;;;;;;;;;;32.29;34.42;98768.96;1701493;84;20154;-90
2022/08/01 10:31:46;;;;;;;;;;;;;;;32.39;33.39;98772.66;1701695;84;20118;-93
2022/08/01 10:34:15;;;;;;;;;;;;;;;32.38;34.35;98773.14;1701823;84;20101;-90
2022/08/01 10:36:43;;;;;;;;;;;;;;;32.34;33.10;98769.09;1701768;84;20122;-91
2022/08/01 10:39:12;;;;;;;;;;;;;;;32.18;32.35;98768.83;1701855;84;21160;-79
2022/08/01 10:41:39;;;;;;;;;;;;;;;31.98;32.68;98767.19;1701472;84;20118;-82
2022/08/01 10:44:08;;;;;;;;;;;;;;;31.92;33.25;98766.27;1701572;84;20090;-81
2022/08/01 10:46:39;;;;;;;;;;;;;;;32.02;34.54;98764.18;1699581;84;20126;-85
2022/08/01 10:49:09;;;;;;;;;;;;;;;32.21;35.45;98765.66;1685974;83;20132;-82
2022/08/01 10:51:38;;;;;;;;;;;;;;;32.34;35.28;98764.83;1673543;85;21138;-80
2022/08/01 10:54:09;;;;;;;;;;;;;;;32.42;34.36;98760.97;1673861;86;20116;-78
2022/08/01 10:56:49;;;;;;;;;;;;;;;32.41;34.67;98756.55;1673522;86;20097;-80
2022/08/01 10:59:20;;;;;;;;;;;;;;;32.54;35.98;98756.31;1673466;85;20169;-79
2022/08/01 11:01:58;;;;;;;;;;;;;;;32.73;34.76;98752.07;1673294;85;20147;-81
2022/08/01 11:04:44;;;;;;;;;;;;;;;32.79;34.67;98750.95;1672819;85;21819;-76
2022/08/01 11:07:22;;;;;;;;;;;;;;;32.68;34.47;98748.48;1673292;86;20088;-77
2022/08/01 11:10:00;;;;;;;;;;;;;;;32.67;35.31;98745.48;1673264;85;20419;-77
2022/08/01 11:12:40;;;;;;;;;;;;;;;32.58;34.30;98746.97;1673437;85;20192;-78
2022/08/01 11:15:12;;;;;;;;;;;;;;;32.35;34.47;98744.31;1671330;85;20152;-78
2022/08/01 11:17:44;;;;;;;;;;;;;;;32.16;34.53;98747.86;1673330;86;21819;-78
2022/08/01 11:20:11;;;;;;;;;;;;;;;32.17;36.83;98746.59;1673444;84;20092;-80
2022/08/01 11:23:03;;;;;;;;;;;;;;;32.43;36.59;98752.59;1688783;84;20104;-84
2022/08/01 11:25:45;;;;;;;;;;;;;;;32.53;35.68;98765.47;1673252;86;20100;-81
2022/08/01 11:28:17;;;;;;;;;;;;;;;32.27;35.50;98758.72;1671793;85;20971;-77
2022/08/01 11:30:48;;;;;;;;;;;;;;;32.00;36.10;98761.03;1672608;86;21724;-82
2022/08/01 11:33:16;;;;;;;;;;;;;;;31.92;36.17;98752.08;1673235;86;20109;-79
2022/08/01 11:36:12;;;;;;;;;;;;;;;31.94;36.48;98753.02;1685101;84;20199;-83
2022/08/01 11:38:43;;;;;;;;;;;;;;;31.94;36.43;98754.44;1700859;84;20102;-82
2022/08/01 11:41:14;;;;;;;;;;;;;;;31.69;36.35;98759.92;1701323;84;20122;-83
2022/08/01 11:43:58;;;;;;;;;;;;;;;31.37;37.54;98763.60;1700911;83;21125;-82
2022/08/01 11:46:59;;;;;;;;;;;;;;;31.18;36.88;98756.41;1676348;85;20132;-83
2022/08/01 11:49:44;;;;;;;;;;;;;;;31.03;37.78;98766.79;1697659;84;20102;-78
2022/08/01 11:52:10;;;;;;;;;;;;;;;30.90;38.06;98762.70;1692314;84;20154;-79
2022/08/01 11:54:47;;;;;;;;;;;;;;;30.72;38.25;98759.23;1678998;83;20467;-84
2022/08/01 11:57:24;;;;;;;;;;;;;;;30.78;39.21;98757.97;1687392;84;21768;-80
2022/08/01 11:59:53;;;;;;;;;;;;;;;30.88;38.32;98766.63;1700875;83;20235;-80
2022/08/01 12:02:29;;;;;;;;;;;;;;;30.81;39.00;98763.48;1681965;84;20184;-82
2022/08/01 12:04:59;;;;;;;;;;;;;;;30.74;39.13;98770.09;1698441;84;20162;-85
2022/08/01 12:07:30;;;;;;;;;;;;;;;30.85;39.74;98757.03;1684789;84;20112;-78
2022/08/01 12:10:06;;;;;;;;;;;;;;;30.95;37.50;98753.56;1672818;85;21551;-84
2022/08/01 12:12:42;;;;;;;;;;;;;;;30.76;38.13;98759.08;1673149;85;20128;-79
2022/08/01 12:15:15;;;;;;;;;;;;;;;30.56;38.91;98763.77;1672023;86;20160;-74
2022/08/01 12:17:48;;;;;;;;;;;;;;;30.49;39.28;98758.41;1672936;85;20154;-76
2022/08/01 12:20:15;;;;;;;;;;;;;;;30.40;38.00;98751.32;1672168;85;20101;-77
2022/08/01 12:22:55;;;;;;;;;;;;;;;30.12;38.13;98751.25;1672290;85;21184;-78
2022/08/01 12:25:20;;;;;;;;;;;;;;;29.95;39.71;98754.80;1667057;85;20431;-75
2022/08/01 12:27:50;;;;;;;;;;;;;;;29.90;40.84;98752.75;1672226;85;20109;-78
2022/08/01 12:30:18;;;;;;;;;;;;;;;30.02;40.13;98746.84;1684911;85;20076;-83
2022/08/01 12:32:46;;;;;;;;;;;;;;;30.21;39.94;98748.45;1672951;85;20088;-85
2022/08/01 12:35:19;;;;;;;;;;;;;;;30.34;40.28;98750.36;1652168;86;20438;-80
2022/08/01 12:37:54;;;;;;;;;;;;;;;30.51;40.62;98749.61;1676724;84;20096;-83
2022/08/01 12:40:27;;;;;;;;;;;;;;;30.73;39.57;98733.11;1694559;84;20116;-87
2022/08/01 12:42:56;;;;;;;;;;;;;;;30.88;39.78;98746.80;1700918;84;20647;-88
2022/08/01 12:45:25;;;;;;;;;;;;;;;30.80;38.44;98751.99;1695234;84;20444;-73
2022/08/01 12:47:59;;;;;;;;;;;;;;;30.49;38.24;98759.83;1677895;84;21527;-85
2022/08/01 12:50:24;;;;;;;;;;;;;;;30.05;38.89;98752.17;1671567;86;20096;-81
2022/08/01 12:52:50;;;;;;;;;;;;;;;29.78;40.61;98747.98;1673359;85;20124;-83
2022/08/01 12:55:18;;;;;;;;;;;;;;;29.90;40.63;98751.95;1674297;84;20431;-83
2022/08/01 12:57:52;;;;;;;;;;;;;;;30.05;39.89;98755.00;1672818;85;20443;-82
2022/08/01 13:00:24;;;;;;;;;;;;;;;30.25;41.03;98753.17;1683258;83;21526;-72
2022/08/01 13:03:07;;;;;;;;;;;;;;;30.60;39.70;98749.48;1680984;84;20488;-75
2022/08/01 13:05:46;;;;;;;;;;;;;;;30.96;38.99;98752.94;1667766;85;20452;-76